Airfield :
LOGIN :

Register | Disclaimer

   EN    FR    IT 

 










Legend :    VFR   Marginal VFR   IFR   Intensive IFR   Very Intensive IFR
Visi :
Ceiling :
>= 8 km
>= 3000ft
5 to 8 km
1000 to 3000 ft
1500m to 5 km
500 to 1000 ft
800 to 1500m
200 to 500 ft
< 800m
< 200 ft
Symbols :   Thunderstorms  Fog  Heavy snow  Heavy precipitations  Wind > 20 kt
SIGMETs :     Misc.  Thunderstorms  Icing  Turbulence  Mountain Waves  Volcanic Ashes






- Airport Elevation : 1416 ft
- IATA code : ZRH


LSZH - Zurich

CURRENT METAR :
  • 070750Z VRB02KT CAVOK 19/09 Q1024 NOSIG

EXPIRED METARs :
  • 070720Z VRB02KT CAVOK 19/09 Q1024 NOSIG
  • 070650Z VRB02KT CAVOK 17/08 Q1024 NOSIG
  • 070620Z VRB02KT CAVOK 16/09 Q1024 NOSIG
  • 070550Z VRB02KT CAVOK 15/09 Q1024 NOSIG
  • 070520Z 35002KT CAVOK 13/09 Q1024 NOSIG

TAF TAF LSZH
Valid from the 07 at 06:00 until the 08 at 12:00 UTC


070525Z 0706/0812 31004KT CAVOK TX23/0714Z TN12/0706Z TN13/0804Z
BECMG 0710/0713 30014KT 9999 SCT050
PROB30
TEMPO 0712/0717 SHRA
BECMG 0717/0719 34005KT
BECMG 0807/0810 04007KT
ATIS : +41 43 816 2295 (DEP) +41 43 816 2294 (ARR)



MET'MAP, your aeronautical weather chart ! - Copyright ORBIFLY December 2007 - Disclaimer

ORBIFLY MET'MAP TEAM :

Programming & Development : Alexandra Zaïnal
Original concept : Baudouin d'Aumeries
Technical & hardware support : Manuel Goepfert
Assistance : Marc-Olivier Méhu




SOURCES & CREDITS :

   NOAA